Antonios — SY8410 — position and weather

sailwx.info

Track history (hours):
 
Tides and Currents Weather Stations Pressure Air Temp Water Temp Dewpoint Dewpoint Depression Visibility Wind Speed Wind Dir Waves Ship Positions

Antonios

Last reported at 2017-Mar-07 06:33 UTC. Time now 2017-Mar-26 20:46 UTC.
Position N 37°11' E 025°44'.
Warning: this ship's position is 19 days out of date.

Length 57 m; draft 4 m.

Type: Tanker. MMSI: 239191300.

Date/timePositionNaut miles runAvg speedWind from/ knotsBaromVisibWave heightAir tempDewpointWater temp
2017-Mar-07 06:33N 37°11' E 025°44'11 9.6
2017-Mar-07 05:24N 37°14' E 025°30'8 9.8
2017-Mar-07 04:33N 37°16' E 025°20'10 9.6
2017-Mar-07 03:31N 37°18' E 025°08'9 9.6
2017-Mar-07 02:33N 37°20' E 024°56'10 9.7
2017-Mar-07 01:33N 37°23' E 024°45'57 9.4
2017-Mar-06 19:33N 37°37' E 023°36'10 9.8
2017-Mar-06 18:30N 37°39' E 023°23'9 9.1
2017-Mar-06 17:33N 37°45' E 023°15'1010.0
2017-Mar-06 16:34N 37°53' E 023°08'3 2.8
2017-Mar-06 15:33N 37°55' E 023°05'0 0.0
2017-Mar-06 14:33N 37°55' E 023°05'0 0.0
2017-Mar-06 13:33N 37°55' E 023°05'0 0.0
2017-Mar-06 12:33N 37°55' E 023°05'0 0.0
2017-Mar-06 11:33N 37°55' E 023°05'0 0.0
2017-Mar-06 10:33N 37°55' E 023°05'0 0.0
2017-Mar-06 09:33N 37°55' E 023°05'4 4.0
2017-Mar-06 08:33N 37°52' E 023°09'1111.2
2017-Mar-06 07:32N 37°43' E 023°17'9 9.2
2017-Mar-06 06:33N 37°39' E 023°27'1010.1
2017-Mar-06 05:33N 37°37' E 023°40'57 9.5
2017-Mar-05 23:33N 37°22' E 024°49'14 9.7
2017-Mar-05 22:05N 37°18' E 025°06'5 9.8
2017-Mar-05 21:33N 37°16' E 025°12'10 9.8
2017-Mar-05 20:33N 37°13' E 025°24'11 9.6
2017-Mar-05 19:23N 37°12' E 025°38'  
Track history (hours):
 
Tides and Currents Weather Stations Pressure Air Temp Water Temp Dewpoint Dewpoint Depression Visibility Wind Speed Wind Dir Waves Ship Positions

Antonios

Last reported at 2017-Mar-07 06:33 UTC. Time now 2017-Mar-26 20:46 UTC.
Position N 37°11' E 025°44'.
Warning: this ship's position is 19 days out of date.

Length 57 m; draft 4 m.

Type: Tanker. MMSI: 239191300.

Date/timePositionNaut miles runAvg speedWind from/ knotsBaromVisibWave heightAir tempDewpointWater temp
2017-Mar-07 06:33N 37°11' E 025°44'11 9.6
2017-Mar-07 05:24N 37°14' E 025°30'8 9.8
2017-Mar-07 04:33N 37°16' E 025°20'10 9.6
2017-Mar-07 03:31N 37°18' E 025°08'9 9.6
2017-Mar-07 02:33N 37°20' E 024°56'10 9.7
2017-Mar-07 01:33N 37°23' E 024°45'57 9.4
2017-Mar-06 19:33N 37°37' E 023°36'10 9.8
2017-Mar-06 18:30N 37°39' E 023°23'9 9.1
2017-Mar-06 17:33N 37°45' E 023°15'1010.0
2017-Mar-06 16:34N 37°53' E 023°08'3 2.8
2017-Mar-06 15:33N 37°55' E 023°05'0 0.0
2017-Mar-06 14:33N 37°55' E 023°05'0 0.0
2017-Mar-06 13:33N 37°55' E 023°05'0 0.0
2017-Mar-06 12:33N 37°55' E 023°05'0 0.0
2017-Mar-06 11:33N 37°55' E 023°05'0 0.0
2017-Mar-06 10:33N 37°55' E 023°05'0 0.0
2017-Mar-06 09:33N 37°55' E 023°05'4 4.0
2017-Mar-06 08:33N 37°52' E 023°09'1111.2
2017-Mar-06 07:32N 37°43' E 023°17'9 9.2
2017-Mar-06 06:33N 37°39' E 023°27'1010.1
2017-Mar-06 05:33N 37°37' E 023°40'57 9.5
2017-Mar-05 23:33N 37°22' E 024°49'14 9.7
2017-Mar-05 22:05N 37°18' E 025°06'5 9.8
2017-Mar-05 21:33N 37°16' E 025°12'10 9.8
2017-Mar-05 20:33N 37°13' E 025°24'11 9.6
2017-Mar-05 19:23N 37°12' E 025°38'  

Dump ship's entire track history